Weather reports worldwide

Advertisment
Tynset Ii, Norway (1265): temperature & dewpoint: 08.12.2019 05:00:00 - 14.12.2019 05:00:00 (CET)Tynset Ii, Norway (1265): wind speed & gusts: 08.12.2019 05:00:00 - 14.12.2019 05:00:00 (CET)Tynset Ii, Norway (1265): wind direction: 08.12.2019 05:00:00 - 14.12.2019 05:00:00 (CET)Tynset Ii, Norway (1265): reduced air pressure: 08.12.2019 05:00:00 - 14.12.2019 05:00:00 (CET)Tynset Ii, Norway (1265): precipitation: 08.12.2019 05:00:00 - 14.12.2019 05:00:00 (CET)
Date & Time tt [°C] td [°C] ff [km/h] ff [kn] fx [km/h] fx [kn] dd ppp [hPa] rr [mm]
14.12.2019 05:00:00 -0,6 -2,8 5 3 11 6 NE 986,1 0,0
14.12.2019 04:00:00 -0,7 -3,2 3 2 18 10 SSE 986,6 0,0
14.12.2019 03:00:00 -1,2 -3,6 4 2 10 6 SE 987,6 0,0
14.12.2019 02:00:00 -1,1 -3,2 4 2 9 5 WSW 988,1 0,1
14.12.2019 01:00:00 -1,9 -4,0 3 2 - - W 988,8 0,0
14.12.2019 00:00:00 -0,8 -3,2 11 6 21 11 S 989,2 0,0
13.12.2019 23:00:00 -0,6 -3,0 10 6 29 16 S 989,5 0,0
13.12.2019 22:00:00 -0,7 -3,2 14 8 27 15 SE 989,8 0,0
13.12.2019 21:00:00 -0,8 -3,6 15 8 31 17 SSE 990,2 0,0
13.12.2019 20:00:00 -0,9 -3,7 17 9 40 21 SE 990,4 0,0
13.12.2019 19:00:00 -0,5 -3,2 14 8 - - SSE 990,3 0,0
13.12.2019 18:00:00 -0,4 -2,9 12 6 - - SSE 990,6 0,0
13.12.2019 17:00:00 -0,5 -2,6 14 8 31 17 SSE 990,4 0,0
13.12.2019 16:00:00 -0,4 -2,9 16 9 32 17 SE 990,4 0,0
13.12.2019 15:00:00 -0,5 -2,7 13 7 22 12 S 990,2 0,1
13.12.2019 14:00:00 -0,6 -2,8 5 3 26 14 SW 990,3 0,0
13.12.2019 13:00:00 -0,5 -3,2 16 8 - - S 990,3 0,0
13.12.2019 12:00:00 -0,8 -3,5 14 8 28 15 SSE 990,5 0,0
13.12.2019 11:00:00 -0,7 -3,5 8 5 23 13 S 990,6 0,0
13.12.2019 10:00:00 -0,8 -3,8 9 5 20 11 SSE 990,5 0,0
13.12.2019 09:00:00 -1,2 -3,7 9 5 32 17 SSW 990,2 0,0
13.12.2019 08:00:00 -1,3 -4,4 13 7 35 19 SSE 989,4 0,0
13.12.2019 07:00:00 -0,6 -4,2 17 9 - - S 988,6 0,0
13.12.2019 06:00:00 -0,8 -3,9 11 6 24 13 SSE 988,2 0,0
13.12.2019 05:00:00 -0,9 -3,4 10 5 34 18 S 987,8 0,0
13.12.2019 04:00:00 -0,3 -2,5 16 9 36 20 SSE 987,2 0,0
13.12.2019 03:00:00 0,0 -2,4 13 7 33 18 SSE 987,2 0,0
13.12.2019 02:00:00 -0,1 -2,2 18 10 35 19 SE 986,8 0,0
13.12.2019 01:00:00 0,0 -2,0 18 10 - - SSE 986,6 0,0
13.12.2019 00:00:00 0,2 -2,0 17 9 32 17 SE 986,7 0,0
12.12.2019 23:00:00 0,3 -2,1 22 12 35 19 SSE 986,5 0,0
12.12.2019 22:00:00 0,3 -1,8 10 6 22 12 S 986,8 0,0
12.12.2019 21:00:00 0,5 -1,7 10 5 24 13 S 987,2 0,1
12.12.2019 20:00:00 0,6 -1,5 12 6 26 14 S 987,3 0,0
12.12.2019 19:00:00 0,6 -1,3 6 3 - - SSW 987,7 0,2
12.12.2019 18:00:00 0,7 -1,4 5 3 18 10 S 988,2 0,0
12.12.2019 17:00:00 0,7 -1,5 10 6 31 17 SSE 988,5 0,0
12.12.2019 16:00:00 0,8 -1,9 15 8 30 16 SE 988,7 0,0
12.12.2019 15:00:00 0,8 -2,4 15 8 30 16 SE 989,0 0,0
12.12.2019 14:00:00 1,2 -3,6 22 12 33 18 SSE 989,0 0,0
12.12.2019 13:00:00 1,3 -3,9 11 6 - - S 989,3 0,0
12.12.2019 12:00:00 2,1 -5,7 18 10 44 24 S 988,9 0,0
12.12.2019 11:00:00 1,3 -3,7 17 9 38 20 SSE 989,3 0,0
12.12.2019 10:00:00 1,1 -3,4 17 9 33 18 SSE 989,7 0,0
12.12.2019 09:00:00 1,1 -3,0 16 9 36 20 S 989,8 0,0
12.12.2019 08:00:00 0,8 -2,6 16 9 41 22 S 989,8 0,0
12.12.2019 07:00:00 1,1 -2,8 22 12 - - SSE 989,2 0,0
12.12.2019 06:00:00 1,3 -3,2 17 9 - - S 989,7 0,0
12.12.2019 05:00:00 1,0 -3,1 16 9 38 20 S 989,5 0,0
12.12.2019 04:00:00 1,1 -2,8 16 9 37 20 SSE 989,9 0,0
12.12.2019 03:00:00 1,1 -2,8 19 11 39 21 S 990,4 0,0
12.12.2019 02:00:00 1,1 -2,5 18 10 35 19 S 990,1 0,0
12.12.2019 01:00:00 0,8 -2,2 13 7 - - S 990,4 0,0
12.12.2019 00:00:00 1,0 -2,4 21 11 42 23 SSE 991,0 0,0
11.12.2019 23:00:00 1,0 -1,9 18 10 42 23 SSE 991,7 0,0
11.12.2019 22:00:00 1,2 -2,4 11 6 31 17 SSE 991,9 0,0
11.12.2019 21:00:00 0,9 -2,0 15 8 32 17 SSE 992,1 0,0
11.12.2019 20:00:00 1,2 -2,4 12 7 29 16 SSE 992,3 0,0
11.12.2019 19:00:00 1,2 -2,9 13 7 - - S 991,9 0,0
11.12.2019 18:00:00 1,1 -3,2 10 5 22 12 S 992,3 0,0
11.12.2019 17:00:00 0,6 -3,1 18 10 37 20 SSE 992,2 0,0
11.12.2019 16:00:00 1,1 -3,7 14 8 27 14 S 991,5 0,0
11.12.2019 15:00:00 0,4 -3,1 13 7 22 12 ESE 991,0 0,0
11.12.2019 14:00:00 0,6 -5,4 6 3 26 14 E 990,4 0,0
11.12.2019 13:00:00 1,7 -4,8 8 4 - - NW 989,2 0,0
11.12.2019 12:00:00 0,9 -4,3 5 3 30 16 ENE 988,4 0,0
11.12.2019 11:00:00 -3,1 -5,4 6 3 15 8 NNE 988,9 0,0
11.12.2019 10:00:00 -0,6 -3,4 6 4 26 14 SE 987,3 0,0
11.12.2019 09:00:00 0,8 -2,2 18 10 37 20 SSE 985,9 0,0
11.12.2019 08:00:00 0,6 -2,1 16 9 30 16 SSE 985,6 0,0
11.12.2019 07:00:00 0,9 -2,0 16 9 - - S 984,6 0,0
11.12.2019 06:00:00 1,0 -1,9 14 8 33 18 S 984,2 0,0
11.12.2019 05:00:00 1,2 -2,2 16 9 52 28 SSE 983,4 0,1
11.12.2019 04:00:00 1,2 -2,2 22 12 45 25 SSE 983,1 0,0
11.12.2019 03:00:00 1,3 -2,4 29 15 56 31 ESE 983,5 0,0
11.12.2019 02:00:00 0,8 -2,8 25 13 50 27 E 983,8 0,0
11.12.2019 01:00:00 0,0 -2,5 19 11 - - S 985,1 0,1
11.12.2019 00:00:00 -0,8 -3,3 16 9 46 25 SE 987,4 0,0
10.12.2019 23:00:00 -1,9 -4,7 20 11 41 22 SE 989,9 0,0
10.12.2019 22:00:00 -3,1 -5,6 13 7 41 22 S 992,4 0,1
10.12.2019 21:00:00 -4,4 -6,8 15 8 39 21 SSE 995,0 0,2
10.12.2019 20:00:00 -5,2 -7,8 12 6 30 16 S 997,2 0,4
10.12.2019 19:00:00 -5,7 -8,0 10 6 - - S 999,4 0,6
10.12.2019 18:00:00 -6,2 -8,6 19 11 46 25 SSE 1001,2 0,2
10.12.2019 17:00:00 -7,5 -10,2 22 12 50 27 S 1003,6 0,0
10.12.2019 16:00:00 -7,3 -11,3 31 17 53 29 SE 1005,1 0,0
10.12.2019 15:00:00 -7,6 -12,1 18 10 48 26 SSE 1006,6 0,0
10.12.2019 14:00:00 -7,1 -12,0 21 11 41 22 SSE 1007,8 0,0
10.12.2019 13:00:00 -19,5 -21,7 4 2 - - NE 1012,1 0,0
10.12.2019 12:00:00 -22,8 -25,2 2 1 8 4 E 1014,5 0,0
10.12.2019 11:00:00 -23,8 -26,3 2 1 5 3 E 1016,2 0,0
10.12.2019 10:00:00 -23,1 -25,5 1 1 5 3 SSE 1016,7 0,0
10.12.2019 09:00:00 -21,9 -24,2 1 1 5 3 ESE 1016,6 0,0
10.12.2019 08:00:00 -20,6 -22,8 4 2 8 5 ESE 1016,2 0,0
10.12.2019 07:00:00 -20,6 -23,0 3 2 - - SSW 1016,0 0,0
10.12.2019 06:00:00 -20,3 -22,7 4 2 14 7 W 1015,4 0,0
10.12.2019 05:00:00 -16,9 -18,7 5 3 15 8 SSE 1014,1 0,0
10.12.2019 04:00:00 -17,4 -19,2 2 1 10 6 S 1013,5 0,0
10.12.2019 03:00:00 -15,7 -17,2 3 2 9 5 E 1012,4 0,0
10.12.2019 02:00:00 -14,3 -16,2 2 1 11 6 SE 1011,1 0,0
10.12.2019 01:00:00 -6,3 -10,9 12 6 - - WSW 1008,0 0,0
10.12.2019 00:00:00 -5,3 -10,6 22 12 33 18 WNW 1007,1 0,0
09.12.2019 23:00:00 -6,7 -9,5 18 10 26 14 WNW 1005,9 0,0
09.12.2019 22:00:00 -6,7 -9,1 11 6 18 10 W 1004,6 0,0
09.12.2019 21:00:00 -4,8 -8,8 9 5 21 11 WNW 1003,0 0,0
09.12.2019 20:00:00 -8,5 -9,6 3 1 5 3 W 1002,3 0,0
09.12.2019 19:00:00 -6,0 -7,7 4 2 - - NNE 1000,1 0,1
09.12.2019 18:00:00 -8,7 -10,1 5 3 9 5 NE 998,8 0,1
09.12.2019 17:00:00 -6,9 -8,4 3 2 15 8 SSW 996,5 0,0
09.12.2019 16:00:00 -3,9 -7,1 13 7 26 14 NNW 993,8 0,0
09.12.2019 15:00:00 -4,8 -8,1 13 7 21 12 WNW 992,1 0,0
09.12.2019 14:00:00 -3,0 -6,2 15 8 26 14 NW 990,1 0,0
09.12.2019 13:00:00 -3,6 -5,5 6 3 - - SSW 988,6 0,1
09.12.2019 12:00:00 -2,3 -5,5 8 5 27 15 NW 987,0 0,0
09.12.2019 11:00:00 -2,8 -6,5 8 4 16 9 NNW 985,8 0,0
09.12.2019 10:00:00 -2,7 -5,9 5 3 13 7 N 984,1 0,0
09.12.2019 09:00:00 -3,2 -6,6 6 3 25 14 N 982,4 0,0
09.12.2019 08:00:00 -3,5 -6,4 5 3 14 7 ENE 980,7 0,0
09.12.2019 07:00:00 -3,0 -6,1 9 5 - - SE 978,7 0,0
09.12.2019 06:00:00 -3,5 -6,1 8 4 17 9 W 976,6 0,0
09.12.2019 05:00:00 -6,6 -7,9 4 2 11 6 N 975,9 0,0
09.12.2019 04:00:00 -6,7 -8,0 2 1 9 5 WSW 974,5 0,1
09.12.2019 03:00:00 -6,8 -8,5 7 4 16 9 SW 973,2 0,0
09.12.2019 02:00:00 -6,9 -8,5 14 7 18 10 W 971,4 0,0
09.12.2019 01:00:00 -5,5 -7,0 9 5 - - WSW 970,3 0,0
09.12.2019 00:00:00 -5,7 -7,3 11 6 21 11 WSW 970,1 0,0
08.12.2019 23:00:00 -5,7 -7,3 6 3 19 10 WSW 969,7 0,0
08.12.2019 22:00:00 -4,7 -6,9 11 6 21 11 SW 968,9 0,0
08.12.2019 21:00:00 -5,6 -7,2 10 5 18 10 W 969,1 0,0
08.12.2019 20:00:00 -5,3 -7,0 8 4 22 12 W 968,7 0,0
08.12.2019 19:00:00 -4,7 -6,9 12 6 - - S 968,1 0,0
08.12.2019 18:00:00 -4,9 -6,6 5 3 17 9 SW 968,6 0,1
08.12.2019 17:00:00 -5,1 -6,7 9 5 24 13 S 968,6 0,0
08.12.2019 16:00:00 -7,1 -8,2 8 5 14 8 NNE 969,5 0,1
08.12.2019 15:00:00 -7,2 -8,3 11 6 23 12 E 970,0 0,1
08.12.2019 14:00:00 -9,6 -10,9 4 2 10 5 ENE 972,4 0,9
08.12.2019 13:00:00 -10,7 -12,0 4 2 - - S 973,9 0,2
08.12.2019 12:00:00 -12,8 -14,3 4 2 10 5 ESE 976,9 0,6
08.12.2019 11:00:00 -14,1 -15,9 4 2 7 4 NNE 979,6 0,4
08.12.2019 10:00:00 -15,3 -17,2 3 1 10 6 N 982,4 0,7
08.12.2019 09:00:00 -16,5 -18,3 2 1 9 5 ENE 985,0 0,5
08.12.2019 08:00:00 -18,0 -20,0 1 1 8 5 NNW 986,9 0,0
08.12.2019 07:00:00 -19,9 -22,0 2 1 - - NNE 989,8 0,0
08.12.2019 06:00:00 -21,9 -24,2 3 2 6 3 ESE 991,7 0,0
08.12.2019 05:00:00 -23,5 -25,9 3 1 6 3 W 994,0 0,0

tt = temperature
td = dewpoint
ff = wind speed
fx = gusts
dd = wind direction
ppp = reduced air pressure
rr = precipitation

Next stations